Time;durP1;ratioP1;P1;durP2;ratioP2;P2;SDS_P1;SDS_P2;PMS_P1;PMS_P2;Temp;Humidity;BMP_temperature;BMP_pressure;BME280_temperature;BME280_humidity;BME280_pressure;Samples;Min_cycle;Max_cycle;Signal;HPM_P1;HPM_P2
2023/07/14 00:00:30;;;;;;;2.28;1.27;;;22.50;95.60;;;;;;7387916;19;20173;-72
2023/07/14 00:02:57;;;;;;;6.18;1.55;;;22.60;95.50;;;;;;7386295;19;20145;-73
2023/07/14 00:05:28;;;;;;;2.03;1.20;;;22.50;95.30;;;;;;7388526;19;20143;-74
2023/07/14 00:07:56;;;;;;;1.80;1.23;;;22.50;95.60;;;;;;7385206;19;20165;-74
2023/07/14 00:10:25;;;;;;;3.45;1.45;;;22.50;95.50;;;;;;7387212;19;20143;-73
2023/07/14 00:12:54;;;;;;;3.90;1.42;;;22.50;95.70;;;;;;7387008;19;20199;-75
2023/07/14 00:15:23;;;;;;;3.53;2.25;;;22.50;95.60;;;;;;7384831;19;20225;-74
2023/07/14 00:17:55;;;;;;;5.57;1.70;;;22.50;95.90;;;;;;7386273;19;20165;-74
2023/07/14 00:20:26;;;;;;;2.20;1.27;;;22.40;95.90;;;;;;7383944;19;20131;-73
2023/07/14 00:22:53;;;;;;;1.88;1.30;;;22.40;96.20;;;;;;7386719;19;20463;-73
2023/07/14 00:25:20;;;;;;;1.80;1.50;;;22.30;96.30;;;;;;7386383;19;20165;-73
2023/07/14 00:27:46;;;;;;;2.65;1.23;;;22.20;96.40;;;;;;7385108;19;20138;-73
2023/07/14 00:30:18;;;;;;;1.70;1.20;;;22.20;96.60;;;;;;7386464;19;20142;-74
2023/07/14 00:32:45;;;;;;;3.58;1.40;;;22.30;96.60;;;;;;7384161;19;20175;-74
2023/07/14 00:35:30;;;;;;;3.17;2.03;;;22.20;96.80;;;;;;7387332;19;20495;-74
2023/07/14 00:37:56;;;;;;;1.85;1.20;;;22.30;96.80;;;;;;7384852;19;20138;-74
2023/07/14 00:40:36;;;;;;;1.70;1.27;;;22.30;96.60;;;;;;7384595;19;20202;-74
2023/07/14 00:43:12;;;;;;;1.95;1.05;;;22.40;96.70;;;;;;7385338;19;20493;-73
2023/07/14 00:45:38;;;;;;;3.38;1.10;;;22.40;96.60;;;;;;7384250;19;20169;-73
2023/07/14 00:48:05;;;;;;;2.13;1.25;;;22.30;96.30;;;;;;7382711;19;20590;-72
2023/07/14 00:50:43;;;;;;;3.20;1.58;;;22.20;96.60;;;;;;7385677;19;20229;-73
2023/07/14 00:53:39;;;;;;;1.40;0.80;;;22.00;96.90;;;;;;7385833;19;20142;-74
2023/07/14 00:56:11;;;;;;;2.47;1.50;;;22.10;97.40;;;;;;7384447;19;20167;-74
2023/07/14 00:58:38;;;;;;;2.88;1.40;;;22.20;97.90;;;;;;7384675;19;20246;-74
2023/07/14 01:01:21;;;;;;;2.22;1.27;;;22.20;97.80;;;;;;7383156;19;20134;-74
2023/07/14 01:03:55;;;;;;;4.07;1.40;;;22.20;97.70;;;;;;7384777;19;20158;-73
2023/07/14 01:06:26;;;;;;;1.42;0.93;;;22.10;97.50;;;;;;7384201;19;20152;-73
2023/07/14 01:08:55;;;;;;;2.28;1.30;;;22.10;97.60;;;;;;7384376;19;20151;-74
2023/07/14 01:11:27;;;;;;;3.40;1.48;;;22.10;97.90;;;;;;7387176;19;20586;-73
2023/07/14 01:13:54;;;;;;;1.48;1.25;;;22.10;98.50;;;;;;7385719;19;20137;-73
2023/07/14 01:16:20;;;;;;;3.05;1.67;;;22.00;98.80;;;;;;7385112;19;20156;-74
2023/07/14 01:18:47;;;;;;;3.28;1.50;;;22.00;99.20;;;;;;7382887;19;20147;-74
2023/07/14 01:21:15;;;;;;;4.43;1.60;;;22.00;99.50;;;;;;7383414;19;20242;-73
2023/07/14 01:23:58;;;;;;;2.88;1.45;;;22.00;99.60;;;;;;7384941;19;20162;-73
2023/07/14 01:26:51;;;;;;;3.47;1.63;;;21.90;99.70;;;;;;7385747;19;20579;-73
2023/07/14 01:29:19;;;;;;;3.45;1.23;;;21.90;99.70;;;;;;7387913;19;20142;-73
2023/07/14 01:31:47;;;;;;;3.63;1.50;;;21.90;99.90;;;;;;7391917;19;20161;-73
2023/07/14 01:34:13;;;;;;;3.60;1.50;;;21.80;99.90;;;;;;7390069;19;20143;-73
2023/07/14 01:36:39;;;;;;;2.60;1.38;;;21.90;99.90;;;;;;7389583;19;20154;-73
2023/07/14 01:39:05;;;;;;;2.70;1.50;;;21.90;99.90;;;;;;7391566;19;20143;-73
2023/07/14 01:41:32;;;;;;;2.20;1.55;;;21.80;99.90;;;;;;7391256;19;20162;-73
2023/07/14 01:44:03;;;;;;;2.00;1.25;;;21.80;99.90;;;;;;7390456;19;21019;-74
2023/07/14 01:46:28;;;;;;;2.67;1.63;;;21.70;99.90;;;;;;7384096;19;20185;-74
2023/07/14 01:48:57;;;;;;;2.22;1.27;;;21.60;99.90;;;;;;7391536;19;20154;-74
2023/07/14 01:51:25;;;;;;;5.88;1.30;;;21.60;99.90;;;;;;7389620;19;20169;-73
2023/07/14 01:54:13;;;;;;;2.28;1.23;;;21.50;99.90;;;;;;7388877;19;20130;-72
2023/07/14 01:56:41;;;;;;;2.45;1.33;;;21.50;99.90;;;;;;7389571;19;20142;-74
2023/07/14 01:59:21;;;;;;;6.40;1.75;;;21.60;99.90;;;;;;7390304;19;20171;-73
2023/07/14 02:01:49;;;;;;;2.92;1.30;;;21.60;99.90;;;;;;7391776;19;20139;-73
2023/07/14 02:04:29;;;;;;;2.17;1.05;;;21.60;99.90;;;;;;7390202;19;20146;-74
2023/07/14 02:06:56;;;;;;;2.30;1.17;;;21.50;99.90;;;;;;7389088;19;20159;-74
2023/07/14 02:09:23;;;;;;;3.08;1.20;;;21.50;99.90;;;;;;7388943;19;20182;-73
2023/07/14 02:11:54;;;;;;;3.65;1.40;;;21.50;99.90;;;;;;7391880;19;20531;-73
2023/07/14 02:14:23;;;;;;;2.97;1.60;;;21.50;99.90;;;;;;7390511;19;20134;-73
2023/07/14 02:16:50;;;;;;;3.20;1.48;;;21.50;99.90;;;;;;7387871;19;20507;-73
2023/07/14 02:19:24;;;;;;;2.60;1.35;;;21.50;99.90;;;;;;7389710;19;20142;-73
2023/07/14 02:21:51;;;;;;;5.63;1.65;;;21.50;99.90;;;;;;7392223;19;20165;-74
2023/07/14 02:24:22;;;;;;;5.65;1.40;;;21.50;99.90;;;;;;7377617;19;20139;-73
2023/07/14 02:26:53;;;;;;;3.55;1.10;;;21.30;99.90;;;;;;7388334;19;20151;-74
2023/07/14 02:29:19;;;;;;;3.33;1.40;;;21.20;99.90;;;;;;7388595;19;20154;-73
2023/07/14 02:31:56;;;;;;;2.47;1.35;;;21.20;99.90;;;;;;7389192;19;20142;-74
2023/07/14 02:34:23;;;;;;;2.40;1.58;;;21.30;99.90;;;;;;7390207;19;20131;-73
2023/07/14 02:36:59;;;;;;;3.67;1.63;;;21.30;99.90;;;;;;7389331;19;20139;-73
2023/07/14 02:39:28;;;;;;;2.53;1.40;;;21.20;99.90;;;;;;7388183;19;20201;-73
2023/07/14 02:41:57;;;;;;;2.38;1.55;;;21.30;99.90;;;;;;7389259;19;20138;-74
2023/07/14 02:44:29;;;;;;;2.47;1.50;;;21.20;99.90;;;;;;7389154;19;20150;-74
2023/07/14 02:47:02;;;;;;;3.53;1.40;;;21.30;99.90;;;;;;7386560;19;20150;-73
2023/07/14 02:49:27;;;;;;;2.00;1.30;;;21.40;99.90;;;;;;7387902;19;20210;-73
2023/07/14 02:51:53;;;;;;;2.15;1.38;;;21.30;99.90;;;;;;7388426;19;20155;-73
2023/07/14 02:54:19;;;;;;;2.15;1.08;;;21.20;99.90;;;;;;7389993;19;21596;-73
2023/07/14 02:56:44;;;;;;;2.50;1.30;;;21.20;99.90;;;;;;7387478;19;20513;-73
2023/07/14 02:59:13;;;;;;;2.78;1.45;;;21.20;99.90;;;;;;7389732;19;20149;-73
2023/07/14 03:01:39;;;;;;;2.63;1.42;;;21.20;99.90;;;;;;7385255;19;20174;-73
2023/07/14 03:04:05;;;;;;;1.90;1.40;;;21.20;99.90;;;;;;7387976;19;20496;-73
2023/07/14 03:06:31;;;;;;;2.08;1.40;;;21.20;99.90;;;;;;7380775;19;20647;-72
2023/07/14 03:08:57;;;;;;;3.08;1.50;;;21.20;99.90;;;;;;7387825;19;20614;-73
2023/07/14 03:11:23;;;;;;;3.40;1.52;;;21.10;99.90;;;;;;7387237;19;20127;-73
2023/07/14 03:13:49;;;;;;;2.10;1.30;;;21.10;99.90;;;;;;7387218;19;20153;-73
2023/07/14 03:16:15;;;;;;;2.78;1.27;;;21.00;99.90;;;;;;7389125;19;20516;-73
2023/07/14 03:18:41;;;;;;;3.40;1.60;;;21.00;99.90;;;;;;7386258;19;20210;-73
2023/07/14 03:21:07;;;;;;;1.75;1.20;;;20.90;99.90;;;;;;7385269;19;20159;-73
2023/07/14 03:23:34;;;;;;;4.05;1.70;;;20.90;99.90;;;;;;7387318;19;20153;-73
2023/07/14 03:26:02;;;;;;;2.58;1.33;;;20.90;99.90;;;;;;7387387;19;20135;-73
2023/07/14 03:28:29;;;;;;;2.70;1.40;;;20.90;99.90;;;;;;7387390;19;20134;-73
2023/07/14 03:30:54;;;;;;;2.20;1.23;;;20.90;99.90;;;;;;7386503;19;20177;-74
2023/07/14 03:33:20;;;;;;;2.10;1.13;;;20.90;99.90;;;;;;7389483;19;20772;-73
2023/07/14 03:35:46;;;;;;;2.03;1.25;;;20.80;99.90;;;;;;7387831;19;20130;-73
2023/07/14 03:38:12;;;;;;;1.27;1.15;;;20.80;99.90;;;;;;7388008;19;20142;-74
2023/07/14 03:40:38;;;;;;;2.55;1.60;;;20.80;99.90;;;;;;7385813;19;20138;-73
2023/07/14 03:43:03;;;;;;;2.15;1.50;;;20.90;99.90;;;;;;7387910;19;20194;-73
2023/07/14 03:45:31;;;;;;;2.60;1.70;;;20.90;99.90;;;;;;7387101;19;20130;-74
2023/07/14 03:47:57;;;;;;;2.63;1.40;;;20.80;99.90;;;;;;7386157;19;20169;-74
2023/07/14 03:50:23;;;;;;;2.10;1.10;;;20.70;99.90;;;;;;7388168;19;20790;-72
2023/07/14 03:52:49;;;;;;;3.55;1.50;;;20.80;99.90;;;;;;7386832;19;20135;-74
2023/07/14 03:55:15;;;;;;;1.85;1.10;;;20.70;99.90;;;;;;7384744;19;20262;-73
2023/07/14 03:57:42;;;;;;;2.17;1.42;;;20.70;99.90;;;;;;7387199;19;20578;-73
2023/07/14 04:00:14;;;;;;;2.22;1.20;;;20.70;99.90;;;;;;7384762;19;20857;-73
2023/07/14 04:02:40;;;;;;;1.88;1.52;;;20.60;99.90;;;;;;7385684;19;20147;-74
2023/07/14 04:05:09;;;;;;;3.13;1.67;;;20.70;99.90;;;;;;7384749;19;20139;-74
2023/07/14 04:07:39;;;;;;;3.33;1.20;;;20.80;99.90;;;;;;7388329;19;20613;-73
2023/07/14 04:10:06;;;;;;;2.45;1.30;;;20.90;99.90;;;;;;7384994;19;20213;-73
2023/07/14 04:12:33;;;;;;;1.50;1.23;;;20.90;99.90;;;;;;7387185;19;20142;-74
2023/07/14 04:14:59;;;;;;;4.25;1.70;;;21.00;99.90;;;;;;7384261;19;20138;-73
2023/07/14 04:17:25;;;;;;;2.35;1.50;;;20.90;99.90;;;;;;7388078;19;20141;-72
2023/07/14 04:19:51;;;;;;;2.78;1.30;;;21.00;99.90;;;;;;7384459;19;20134;-73
2023/07/14 04:22:18;;;;;;;3.05;1.55;;;21.10;99.90;;;;;;7388848;19;20214;-73
2023/07/14 04:24:45;;;;;;;2.50;1.52;;;20.90;99.90;;;;;;7385732;19;20726;-73
2023/07/14 04:27:12;;;;;;;3.17;1.40;;;21.00;99.90;;;;;;7386914;19;20625;-74
2023/07/14 04:29:39;;;;;;;5.03;1.60;;;20.90;99.90;;;;;;7386664;19;20135;-73
2023/07/14 04:32:06;;;;;;;2.95;1.50;;;20.80;99.90;;;;;;7387968;19;20134;-73
2023/07/14 04:34:32;;;;;;;4.00;1.55;;;20.70;99.90;;;;;;7386932;19;20206;-73
2023/07/14 04:36:58;;;;;;;3.47;1.45;;;20.70;99.90;;;;;;7387539;19;20144;-72
2023/07/14 04:39:25;;;;;;;3.63;1.92;;;20.80;99.90;;;;;;7385156;19;20166;-73
2023/07/14 04:41:52;;;;;;;2.22;1.48;;;20.90;99.90;;;;;;7385352;19;20230;-74
2023/07/14 04:44:18;;;;;;;3.08;1.77;;;20.80;99.90;;;;;;7384117;19;20161;-72
2023/07/14 04:46:45;;;;;;;4.50;1.48;;;20.80;99.90;;;;;;7385469;19;20526;-72
2023/07/14 04:49:11;;;;;;;2.55;1.60;;;21.00;99.90;;;;;;7383982;19;20145;-72
2023/07/14 04:51:37;;;;;;;3.47;1.42;;;21.00;99.90;;;;;;7385956;19;20130;-73
2023/07/14 04:54:05;;;;;;;3.97;2.10;;;21.10;99.90;;;;;;7385856;19;20138;-73
2023/07/14 04:56:34;;;;;;;2.95;1.63;;;21.10;99.90;;;;;;7382288;19;20155;-72
2023/07/14 04:59:00;;;;;;;3.53;1.50;;;21.30;99.90;;;;;;7384715;19;20139;-75
2023/07/14 05:01:27;;;;;;;3.53;1.80;;;21.30;99.90;;;;;;7380414;19;20131;-73
2023/07/14 05:03:53;;;;;;;2.03;1.30;;;21.40;99.90;;;;;;7386895;19;20161;-73
2023/07/14 05:06:19;;;;;;;5.28;1.90;;;21.30;99.90;;;;;;7391273;19;20142;-74
2023/07/14 05:08:45;;;;;;;3.28;2.08;;;21.30;99.90;;;;;;7389669;19;20622;-74
2023/07/14 05:11:11;;;;;;;3.78;2.08;;;21.30;99.90;;;;;;7386509;19;20172;-73
2023/07/14 05:13:37;;;;;;;5.25;2.17;;;21.30;99.90;;;;;;7392154;19;20186;-72
2023/07/14 05:16:03;;;;;;;2.95;1.95;;;21.30;99.90;;;;;;7388510;19;20142;-72
2023/07/14 05:18:29;;;;;;;7.28;1.90;;;21.20;99.90;;;;;;7391821;19;20152;-74
2023/07/14 05:21:04;;;;;;;3.05;2.00;;;21.20;99.90;;;;;;7387969;19;20135;-75
2023/07/14 05:23:31;;;;;;;1.50;1.23;;;21.20;99.90;;;;;;7391360;19;20509;-75
2023/07/14 05:25:57;;;;;;;5.55;2.00;;;21.10;99.90;;;;;;7390396;19;20138;-75
2023/07/14 05:28:24;;;;;;;2.70;1.58;;;20.80;99.90;;;;;;7390470;19;20151;-76
2023/07/14 05:30:53;;;;;;;5.57;2.00;;;21.10;99.90;;;;;;7391350;19;20157;-75
2023/07/14 05:33:20;;;;;;;2.92;1.70;;;21.30;99.90;;;;;;7389070;19;20533;-75
2023/07/14 05:35:47;;;;;;;3.05;1.60;;;21.40;99.90;;;;;;7391564;19;20160;-79
2023/07/14 05:38:13;;;;;;;4.70;1.75;;;21.30;99.90;;;;;;7389104;19;20148;-76
2023/07/14 05:40:39;;;;;;;5.30;1.83;;;21.40;99.90;;;;;;7387312;19;20173;-78
2023/07/14 05:43:05;;;;;;;3.28;1.67;;;21.50;99.90;;;;;;7390946;19;20131;-76
2023/07/14 05:45:31;;;;;;;4.38;1.88;;;21.50;99.90;;;;;;7388900;19;20142;-74
2023/07/14 05:47:57;;;;;;;2.58;1.65;;;21.30;99.90;;;;;;7387475;19;20201;-78
2023/07/14 05:50:22;;;;;;;3.45;1.85;;;21.70;99.90;;;;;;7389096;19;20479;-77
2023/07/14 05:52:48;;;;;;;3.92;1.90;;;21.70;99.90;;;;;;7386571;19;20146;-77
2023/07/14 05:55:14;;;;;;;5.70;2.17;;;21.70;99.90;;;;;;7387059;19;20131;-76
2023/07/14 05:57:40;;;;;;;3.00;1.63;;;21.70;99.90;;;;;;7388776;19;20611;-76
2023/07/14 06:00:16;;;;;;;5.20;3.92;;;21.50;99.90;;;;;;7388259;19;20135;-77
2023/07/14 06:02:43;;;;;;;3.45;2.47;;;21.60;99.90;;;;;;7390116;19;20157;-76
2023/07/14 06:05:10;;;;;;;4.75;1.60;;;21.70;99.90;;;;;;7390398;19;20131;-76
2023/07/14 06:07:37;;;;;;;3.15;2.17;;;21.80;99.90;;;;;;7389618;19;20154;-76
2023/07/14 06:10:03;;;;;;;3.28;1.80;;;21.80;99.90;;;;;;7388688;19;20139;-76
2023/07/14 06:12:29;;;;;;;1.92;1.65;;;21.80;99.90;;;;;;7393824;19;20594;-77
2023/07/14 06:14:55;;;;;;;4.90;2.03;;;21.80;99.90;;;;;;7389975;19;20164;-76
2023/07/14 06:17:21;;;;;;;4.03;1.83;;;21.70;99.90;;;;;;7389344;19;20139;-75
2023/07/14 06:19:47;;;;;;;3.38;1.35;;;21.80;99.90;;;;;;7389407;19;20482;-76
2023/07/14 06:22:13;;;;;;;3.47;1.88;;;22.00;99.90;;;;;;7390813;19;20222;-77
2023/07/14 06:24:40;;;;;;;7.03;1.98;;;22.00;99.90;;;;;;7388567;19;20142;-75
2023/07/14 06:27:06;;;;;;;2.30;1.80;;;22.00;99.90;;;;;;7389651;19;20147;-77
2023/07/14 06:29:33;;;;;;;2.70;1.80;;;23.70;99.90;;;;;;7388181;19;20158;-76
2023/07/14 06:31:59;;;;;;;4.57;2.00;;;26.40;99.90;;;;;;7390574;19;20151;-78
2023/07/14 06:34:26;;;;;;;3.80;2.00;;;28.30;97.10;;;;;;7388586;19;20602;-76
2023/07/14 06:36:52;;;;;;;2.50;2.03;;;29.00;94.60;;;;;;7388008;19;20154;-76
2023/07/14 06:39:22;;;;;;;4.30;2.17;;;29.30;93.80;;;;;;7390301;19;20138;-77
2023/07/14 06:41:47;;;;;;;3.17;2.05;;;30.20;92.60;;;;;;7389405;19;20154;-76
2023/07/14 06:44:15;;;;;;;2.30;2.00;;;30.70;90.60;;;;;;7387849;19;20554;-77
2023/07/14 06:46:41;;;;;;;6.47;2.65;;;30.90;90.30;;;;;;7386346;19;20185;-77
2023/07/14 06:49:08;;;;;;;6.68;1.85;;;31.00;88.90;;;;;;7387432;19;20642;-76
2023/07/14 06:51:34;;;;;;;2.55;1.55;;;31.00;87.50;;;;;;7390553;19;20139;-79
2023/07/14 06:54:01;;;;;;;6.97;2.10;;;31.50;86.10;;;;;;7389285;19;20591;-76
2023/07/14 06:56:26;;;;;;;4.45;2.22;;;32.30;83.50;;;;;;7387128;19;20150;-78
2023/07/14 06:58:52;;;;;;;4.43;1.85;;;31.50;82.80;;;;;;7386230;19;20138;-76
2023/07/14 07:01:20;;;;;;;2.30;1.60;;;29.80;87.20;;;;;;7389332;19;20138;-76
2023/07/14 07:03:46;;;;;;;3.67;2.22;;;29.00;88.70;;;;;;7387484;19;20139;-76
2023/07/14 07:06:15;;;;;;;7.07;1.85;;;28.90;90.00;;;;;;7387829;19;20617;-76
2023/07/14 07:08:41;;;;;;;3.40;2.00;;;29.50;89.30;;;;;;7389759;19;20139;-77
2023/07/14 07:11:10;;;;;;;4.00;2.20;;;29.50;88.10;;;;;;7388450;19;20138;-76
2023/07/14 07:13:35;;;;;;;3.90;1.90;;;29.60;88.10;;;;;;7388786;19;20226;-77
2023/07/14 07:16:01;;;;;;;3.35;2.00;;;29.50;87.70;;;;;;7388169;19;20152;-76
2023/07/14 07:18:28;;;;;;;3.05;1.50;;;29.40;88.50;;;;;;7388205;19;20146;-73
2023/07/14 07:20:55;;;;;;;3.63;1.77;;;30.00;86.30;;;;;;7386249;19;20154;-73
2023/07/14 07:23:21;;;;;;;2.70;2.00;;;29.90;85.20;;;;;;7386869;19;20150;-73
2023/07/14 07:25:52;;;;;;;4.43;1.83;;;28.90;86.90;;;;;;7386208;19;20127;-74
2023/07/14 07:28:19;;;;;;;9.15;2.72;;;28.60;88.50;;;;;;7384835;19;20185;-74
2023/07/14 07:30:45;;;;;;;5.82;2.85;;;28.60;88.60;;;;;;7388479;19;20558;-73
2023/07/14 07:33:12;;;;;;;6.18;2.17;;;28.80;88.50;;;;;;7386953;19;20131;-74
2023/07/14 07:35:40;;;;;;;5.50;2.75;;;29.20;87.20;;;;;;7387001;19;20126;-75
2023/07/14 07:38:10;;;;;;;5.68;2.15;;;29.10;86.80;;;;;;7383205;19;20161;-75
2023/07/14 07:40:36;;;;;;;6.88;1.75;;;29.20;86.20;;;;;;7383561;19;20134;-74
2023/07/14 07:43:02;;;;;;;4.35;1.90;;;28.70;86.20;;;;;;7387579;19;20154;-74
2023/07/14 07:45:28;;;;;;;3.92;2.38;;;28.10;88.00;;;;;;7385695;19;20142;-74
2023/07/14 07:47:54;;;;;;;6.18;2.00;;;28.00;88.70;;;;;;7387637;19;20319;-74
2023/07/14 07:50:22;;;;;;;3.90;1.33;;;28.20;88.00;;;;;;7389958;19;20162;-75
2023/07/14 07:52:48;;;;;;;3.13;1.95;;;28.20;87.50;;;;;;7389652;19;20164;-74
2023/07/14 07:55:14;;;;;;;3.40;1.90;;;28.50;87.50;;;;;;7386252;19;20174;-74
2023/07/14 07:57:40;;;;;;;3.15;1.52;;;28.90;86.00;;;;;;7386141;19;20767;-74
2023/07/14 08:00:11;;;;;;;2.78;1.38;;;29.30;84.60;;;;;;7386614;19;20202;-74
2023/07/14 08:02:37;;;;;;;2.20;1.27;;;29.50;83.50;;;;;;7386293;19;20567;-72
2023/07/14 08:05:02;;;;;;;5.07;1.77;;;29.60;81.60;;;;;;7387626;19;20142;-73
2023/07/14 08:07:28;;;;;;;2.47;1.50;;;29.70;79.70;;;;;;7388861;19;20153;-73
2023/07/14 08:09:54;;;;;;;4.57;1.50;;;29.30;79.50;;;;;;7388496;19;20225;-73
2023/07/14 08:12:20;;;;;;;2.97;2.10;;;29.00;78.30;;;;;;7387232;19;20226;-73
2023/07/14 08:14:56;;;;;;;3.53;1.55;;;28.90;78.30;;;;;;7386870;19;20158;-73
2023/07/14 08:17:27;;;;;;;1.90;1.10;;;29.20;76.70;;;;;;7386683;19;20213;-72
2023/07/14 08:19:54;;;;;;;3.47;1.30;;;29.40;75.90;;;;;;7385567;19;20138;-73
2023/07/14 08:22:21;;;;;;;3.10;1.00;;;29.30;75.60;;;;;;7389121;19;20161;-73
2023/07/14 08:24:47;;;;;;;2.88;1.90;;;29.00;75.80;;;;;;7382915;19;20595;-73
2023/07/14 08:27:14;;;;;;;4.32;2.17;;;29.30;75.30;;;;;;7388603;19;20155;-72
2023/07/14 08:29:40;;;;;;;5.03;2.30;;;29.30;75.60;;;;;;7384300;19;20130;-73
2023/07/14 08:32:06;;;;;;;2.97;1.20;;;29.40;75.80;;;;;;7387958;19;20171;-73
2023/07/14 08:34:32;;;;;;;3.10;1.55;;;29.30;75.20;;;;;;7387188;19;20154;-70
2023/07/14 08:37:04;;;;;;;6.45;1.83;;;29.10;74.80;;;;;;7386569;19;20126;-74
2023/07/14 08:39:32;;;;;;;2.50;1.27;;;29.10;75.60;;;;;;7383055;19;20169;-75
2023/07/14 08:42:04;;;;;;;1.50;1.30;;;29.40;74.40;;;;;;7385268;19;20575;-74
2023/07/14 08:44:44;;;;;;;1.75;0.98;;;29.40;73.90;;;;;;7385842;19;20175;-74
2023/07/14 08:47:44;;;;;;;2.88;1.52;;;29.10;73.70;;;;;;7381340;19;20198;-72
2023/07/14 08:50:20;;;;;;;2.30;1.13;;;29.00;74.60;;;;;;7383243;19;20611;-74
2023/07/14 08:52:49;;;;;;;3.60;1.23;;;28.80;73.20;;;;;;7386169;19;20498;-74
2023/07/14 08:55:22;;;;;;;2.58;1.23;;;28.60;74.50;;;;;;7384361;19;20564;-74
2023/07/14 08:58:01;;;;;;;1.92;0.98;;;28.60;75.30;;;;;;7384575;19;20424;-73
2023/07/14 09:00:35;;;;;;;3.97;2.90;;;28.50;76.50;;;;;;7383552;19;20142;-72
2023/07/14 09:03:24;;;;;;;5.63;1.80;;;28.40;76.70;;;;;;7383070;19;20134;-73
2023/07/14 09:05:54;;;;;;;5.55;4.90;;;28.50;76.10;;;;;;7387292;19;20139;-75
2023/07/14 09:08:29;;;;;;;3.17;1.60;;;28.60;76.60;;;;;;7385729;19;20488;-74
2023/07/14 09:10:55;;;;;;;5.68;2.00;;;28.50;77.80;;;;;;7386099;19;20162;-75
2023/07/14 09:13:28;;;;;;;3.38;2.20;;;28.30;78.10;;;;;;7386502;19;20167;-73
2023/07/14 09:15:56;;;;;;;2.60;1.33;;;27.90;78.20;;;;;;7386221;19;21017;-73
2023/07/14 09:18:49;;;;;;;2.00;1.30;;;27.70;78.80;;;;;;7384432;19;20147;-72
2023/07/14 09:21:19;;;;;;;4.70;1.20;;;27.50;78.90;;;;;;7380009;19;20650;-73
2023/07/14 09:24:26;;;;;;;2.70;1.45;;;27.30;80.30;;;;;;7378694;19;20158;-73
2023/07/14 09:26:55;;;;;;;2.88;1.33;;;27.30;81.10;;;;;;7379982;19;20134;-73
2023/07/14 09:29:34;;;;;;;2.80;1.20;;;27.30;80.80;;;;;;7381657;19;20254;-73
2023/07/14 09:32:06;;;;;;;3.55;1.20;;;27.30;81.30;;;;;;7382764;19;20147;-70
2023/07/14 09:34:58;;;;;;;1.92;1.33;;;27.30;81.60;;;;;;7385296;19;20231;-70
2023/07/14 09:37:44;;;;;;;2.97;1.10;;;27.30;81.30;;;;;;7382416;19;20158;-70
2023/07/14 09:40:21;;;;;;;3.55;1.40;;;27.30;80.60;;;;;;7382697;19;20159;-70
2023/07/14 09:42:53;;;;;;;1.40;0.95;;;27.40;82.00;;;;;;7382784;19;20154;-71
2023/07/14 09:45:24;;;;;;;3.28;1.30;;;27.50;81.00;;;;;;7383705;19;20143;-71
2023/07/14 09:48:20;;;;;;;2.00;1.02;;;27.40;81.20;;;;;;7383072;19;20155;-70
2023/07/14 09:51:12;;;;;;;3.25;1.30;;;27.30;80.90;;;;;;7385354;19;20158;-71
2023/07/14 09:53:39;;;;;;;3.10;1.25;;;27.40;81.00;;;;;;7387213;19;20170;-71
2023/07/14 09:56:20;;;;;;;1.85;1.27;;;27.40;82.40;;;;;;7389899;19;20198;-71
2023/07/14 09:58:53;;;;;;;3.95;1.60;;;27.30;81.20;;;;;;7389738;19;20165;-71
2023/07/14 10:01:19;;;;;;;2.88;1.50;;;27.30;81.10;;;;;;7390501;19;20139;-70
2023/07/14 10:03:51;;;;;;;1.50;0.90;;;27.20;80.50;;;;;;7389272;19;20150;-70
2023/07/14 10:06:29;;;;;;;2.05;1.30;;;27.00;80.60;;;;;;7389778;19;20151;-71
2023/07/14 10:09:16;;;;;;;1.65;1.25;;;27.00;80.60;;;;;;7388612;19;20126;-72
2023/07/14 10:11:41;;;;;;;1.65;0.93;;;26.80;80.10;;;;;;7389977;19;20154;-74
2023/07/14 10:14:35;;;;;;;3.83;1.15;;;26.80;80.10;;;;;;7390033;19;20159;-75
2023/07/14 10:17:02;;;;;;;1.88;1.35;;;26.60;80.70;;;;;;7389821;19;20148;-72
2023/07/14 10:19:41;;;;;;;3.70;1.58;;;26.60;80.60;;;;;;7388303;19;20666;-73
2023/07/14 10:22:10;;;;;;;1.67;1.17;;;26.70;79.80;;;;;;7388122;19;20559;-73
2023/07/14 10:24:37;;;;;;;3.97;3.10;;;26.90;79.00;;;;;;7388661;19;20157;-68
2023/07/14 10:27:26;;;;;;;2.85;2.35;;;26.90;79.70;;;;;;7389694;19;20450;-70
2023/07/14 10:29:57;;;;;;;3.38;2.40;;;26.80;80.10;;;;;;7387021;19;20142;-69
2023/07/14 10:32:31;;;;;;;3.30;1.50;;;27.00;80.00;;;;;;7391907;19;20147;-69
2023/07/14 10:35:21;;;;;;;2.22;0.88;;;27.00;80.00;;;;;;7391751;19;20156;-70
2023/07/14 10:37:52;;;;;;;3.05;1.80;;;27.10;78.70;;;;;;7387123;19;20564;-69
2023/07/14 10:40:22;;;;;;;2.58;1.73;;;27.20;79.30;;;;;;7388483;19;20198;-70
2023/07/14 10:43:21;;;;;;;3.17;1.35;;;27.30;78.50;;;;;;7386960;19;20157;-70
2023/07/14 10:45:50;;;;;;;4.20;1.42;;;27.30;77.50;;;;;;7388351;19;20153;-69
2023/07/14 10:48:21;;;;;;;2.60;1.23;;;27.30;77.40;;;;;;7387654;19;20502;-70
2023/07/14 10:51:21;;;;;;;3.28;1.05;;;27.40;76.10;;;;;;7387855;19;20154;-70
2023/07/14 10:53:59;;;;;;;3.13;1.20;;;27.50;76.70;;;;;;7387423;19;20146;-70
2023/07/14 10:56:39;;;;;;;3.40;2.30;;;27.40;77.70;;;;;;7388600;19;20205;-69
2023/07/14 10:59:29;;;;;;;3.15;1.65;;;27.50;77.40;;;;;;7391396;19;20149;-70
2023/07/14 11:02:11;;;;;;;2.08;1.55;;;27.60;78.10;;;;;;7388668;19;20139;-69
2023/07/14 11:05:07;;;;;;;3.95;2.28;;;27.60;77.60;;;;;;7390608;19;20483;-69
2023/07/14 11:07:34;;;;;;;2.08;1.55;;;27.70;76.40;;;;;;7388758;19;20130;-69
2023/07/14 11:10:01;;;;;;;3.33;1.40;;;27.70;75.20;;;;;;7387820;19;20971;-70
2023/07/14 11:12:50;;;;;;;4.70;1.63;;;27.70;75.80;;;;;;7389563;19;20157;-70
2023/07/14 11:15:25;;;;;;;2.83;1.30;;;27.50;77.60;;;;;;7391011;19;20627;-70
2023/07/14 11:18:17;;;;;;;3.33;1.83;;;27.60;75.30;;;;;;7389964;19;20206;-67
2023/07/14 11:21:09;;;;;;;6.97;5.22;;;27.30;75.90;;;;;;7387641;19;20144;-68
2023/07/14 11:23:41;;;;;;;2.70;1.23;;;27.40;76.50;;;;;;7389626;19;20541;-67
2023/07/14 11:26:17;;;;;;;4.50;2.15;;;27.50;74.30;;;;;;7386098;19;20239;-68
2023/07/14 11:29:00;;;;;;;2.47;1.30;;;27.40;74.80;;;;;;7389625;19;20615;-69
2023/07/14 11:31:36;;;;;;;1.88;1.20;;;27.40;75.50;;;;;;7388718;19;20472;-68
2023/07/14 11:34:25;;;;;;;4.43;2.92;;;27.50;74.80;;;;;;7390138;19;20147;-69
2023/07/14 11:37:04;;;;;;;2.03;1.20;;;27.50;76.30;;;;;;7387677;19;20599;-69
2023/07/14 11:39:58;;;;;;;2.40;2.10;;;27.50;76.30;;;;;;7386808;19;20158;-68
2023/07/14 11:42:36;;;;;;;2.20;1.90;;;27.60;77.00;;;;;;7385593;19;20152;-68
2023/07/14 11:45:19;;;;;;;2.53;1.13;;;27.80;76.10;;;;;;7387475;19;20257;-70
2023/07/14 11:47:45;;;;;;;1.65;0.82;;;27.90;75.70;;;;;;7384100;19;20158;-69
2023/07/14 11:50:19;;;;;;;4.95;1.23;;;28.00;75.50;;;;;;7388412;19;20131;-68
2023/07/14 11:52:59;;;;;;;2.85;1.50;;;27.90;75.30;;;;;;7387473;19;20135;-69
2023/07/14 11:55:27;;;;;;;3.75;1.52;;;27.80;77.00;;;;;;7386853;19;20140;-69
2023/07/14 11:58:20;;;;;;;3.00;1.35;;;28.00;75.70;;;;;;7388651;19;20141;-69
2023/07/14 12:00:52;;;;;;;3.75;2.72;;;28.00;75.70;;;;;;7386286;19;20142;-69
2023/07/14 12:03:29;;;;;;;3.50;1.45;;;28.10;76.80;;;;;;7386095;19;20625;-69
2023/07/14 12:06:19;;;;;;;3.90;1.20;;;28.10;75.70;;;;;;7388688;19;20134;-69
2023/07/14 12:09:10;;;;;;;2.42;1.13;;;28.10;75.30;;;;;;7387610;19;20157;-70
2023/07/14 12:11:39;;;;;;;2.33;1.27;;;28.20;75.20;;;;;;7386724;19;20131;-69
2023/07/14 12:14:24;;;;;;;2.05;1.35;;;28.20;75.20;;;;;;7387222;19;20130;-70
2023/07/14 12:16:49;;;;;;;2.35;0.93;;;28.50;73.70;;;;;;7386184;19;20127;-69
2023/07/14 12:19:27;;;;;;;1.77;1.17;;;28.30;73.20;;;;;;7388326;19;20145;-69
2023/07/14 12:22:02;;;;;;;2.22;1.35;;;28.20;73.70;;;;;;7383274;19;20150;-68
2023/07/14 12:24:31;;;;;;;3.50;1.33;;;28.40;72.70;;;;;;7386286;19;20479;-70
2023/07/14 12:27:08;;;;;;;2.78;1.35;;;28.30;72.50;;;;;;7388237;19;20142;-68
2023/07/14 12:29:34;;;;;;;2.78;1.48;;;28.30;72.10;;;;;;7387911;19;20142;-70
2023/07/14 12:32:02;;;;;;;1.52;1.30;;;28.40;72.50;;;;;;7387336;19;20138;-68
2023/07/14 12:34:31;;;;;;;1.98;1.30;;;28.10;73.20;;;;;;7386272;19;20221;-69
2023/07/14 12:37:00;;;;;;;2.55;1.23;;;28.00;72.70;;;;;;7387596;19;20222;-69
2023/07/14 12:39:28;;;;;;;3.60;1.90;;;28.10;72.40;;;;;;7387986;19;20139;-70
2023/07/14 12:41:54;;;;;;;1.58;1.30;;;28.00;73.90;;;;;;7384068;19;20474;-70
2023/07/14 12:44:36;;;;;;;1.38;1.00;;;28.10;72.50;;;;;;7385153;19;20157;-70
2023/07/14 12:47:02;;;;;;;2.90;1.30;;;28.30;72.40;;;;;;7382168;19;20146;-70
2023/07/14 12:49:39;;;;;;;3.25;1.63;;;28.50;71.70;;;;;;7386627;19;20134;-70
2023/07/14 12:52:07;;;;;;;3.47;1.33;;;28.40;72.00;;;;;;7384172;19;20149;-69
2023/07/14 12:54:33;;;;;;;1.45;1.27;;;28.50;71.60;;;;;;7387088;19;20162;-70
2023/07/14 12:57:01;;;;;;;2.40;1.50;;;28.30;73.20;;;;;;7383168;19;20146;-70
2023/07/14 12:59:28;;;;;;;1.17;1.02;;;28.20;72.20;;;;;;7385001;19;20146;-70
2023/07/14 13:01:54;;;;;;;2.55;1.33;;;28.10;73.20;;;;;;7383261;19;20131;-71
2023/07/14 13:04:21;;;;;;;1.90;1.02;;;28.20;73.60;;;;;;7386748;19;20130;-69
2023/07/14 13:06:55;;;;;;;3.13;1.20;;;28.00;73.50;;;;;;7385456;19;20198;-69